sensor_id;sensor_type;location;lat;lon;timestamp;P1;durP1;ratioP1;P2;durP2;ratioP2
53389;SDS011;39288;42.970;1.524;2022-08-19T00:00:13;6.32;;;4.15;;
53389;SDS011;39288;42.970;1.524;2022-08-19T00:01:15;6.78;;;3.83;;
53389;SDS011;39288;42.970;1.524;2022-08-19T00:02:16;9.43;;;4.47;;
53389;SDS011;39288;42.970;1.524;2022-08-19T00:03:16;7.03;;;4.37;;
53389;SDS011;39288;42.970;1.524;2022-08-19T00:04:18;8.00;;;4.00;;
53389;SDS011;39288;42.970;1.524;2022-08-19T00:05:20;7.32;;;4.13;;
53389;SDS011;39288;42.970;1.524;2022-08-19T00:06:22;7.65;;;4.13;;
53389;SDS011;39288;42.970;1.524;2022-08-19T00:07:22;6.47;;;4.10;;
53389;SDS011;39288;42.970;1.524;2022-08-19T00:08:23;7.30;;;4.37;;
53389;SDS011;39288;42.970;1.524;2022-08-19T00:09:23;9.80;;;4.10;;
53389;SDS011;39288;42.970;1.524;2022-08-19T00:10:24;4.40;;;3.90;;
53389;SDS011;39288;42.970;1.524;2022-08-19T00:11:25;6.63;;;4.23;;
53389;SDS011;39288;42.970;1.524;2022-08-19T00:12:27;9.05;;;4.00;;
53389;SDS011;39288;42.970;1.524;2022-08-19T00:13:28;6.37;;;4.03;;
53389;SDS011;39288;42.970;1.524;2022-08-19T00:14:28;13.10;;;4.50;;
53389;SDS011;39288;42.970;1.524;2022-08-19T00:15:31;8.02;;;4.10;;
53389;SDS011;39288;42.970;1.524;2022-08-19T00:16:31;10.37;;;3.83;;
53389;SDS011;39288;42.970;1.524;2022-08-19T00:17:32;9.57;;;4.17;;
53389;SDS011;39288;42.970;1.524;2022-08-19T00:18:33;6.87;;;4.40;;
53389;SDS011;39288;42.970;1.524;2022-08-19T00:19:35;8.20;;;3.80;;
53389;SDS011;39288;42.970;1.524;2022-08-19T00:20:36;6.00;;;3.97;;
53389;SDS011;39288;42.970;1.524;2022-08-19T00:21:38;6.28;;;4.20;;
53389;SDS011;39288;42.970;1.524;2022-08-19T00:22:39;4.18;;;3.55;;
53389;SDS011;39288;42.970;1.524;2022-08-19T00:23:42;8.00;;;3.72;;
53389;SDS011;39288;42.970;1.524;2022-08-19T00:24:43;8.60;;;4.07;;
53389;SDS011;39288;42.970;1.524;2022-08-19T00:25:45;4.45;;;3.88;;
53389;SDS011;39288;42.970;1.524;2022-08-19T00:26:45;4.73;;;3.80;;
53389;SDS011;39288;42.970;1.524;2022-08-19T00:27:46;5.43;;;3.60;;
53389;SDS011;39288;42.970;1.524;2022-08-19T00:28:47;4.72;;;4.22;;
53389;SDS011;39288;42.970;1.524;2022-08-19T00:29:47;5.93;;;3.63;;
53389;SDS011;39288;42.970;1.524;2022-08-19T00:30:48;6.33;;;3.60;;
53389;SDS011;39288;42.970;1.524;2022-08-19T00:31:49;5.53;;;3.90;;
53389;SDS011;39288;42.970;1.524;2022-08-19T00:32:53;5.88;;;3.95;;
53389;SDS011;39288;42.970;1.524;2022-08-19T00:33:55;8.25;;;3.83;;
53389;SDS011;39288;42.970;1.524;2022-08-19T00:34:55;5.07;;;3.63;;
53389;SDS011;39288;42.970;1.524;2022-08-19T00:35:56;5.20;;;3.43;;
53389;SDS011;39288;42.970;1.524;2022-08-19T00:36:56;6.87;;;3.30;;
53389;SDS011;39288;42.970;1.524;2022-08-19T00:37:57;4.97;;;3.17;;
53389;SDS011;39288;42.970;1.524;2022-08-19T00:38:58;5.03;;;3.40;;
53389;SDS011;39288;42.970;1.524;2022-08-19T00:39:59;6.63;;;3.37;;
53389;SDS011;39288;42.970;1.524;2022-08-19T00:40:59;4.43;;;3.27;;
53389;SDS011;39288;42.970;1.524;2022-08-19T00:42:00;7.40;;;3.17;;
53389;SDS011;39288;42.970;1.524;2022-08-19T00:43:00;5.33;;;3.00;;
53389;SDS011;39288;42.970;1.524;2022-08-19T00:44:09;4.40;;;3.20;;
53389;SDS011;39288;42.970;1.524;2022-08-19T00:45:15;5.93;;;3.10;;
53389;SDS011;39288;42.970;1.524;2022-08-19T00:46:18;6.78;;;3.20;;
53389;SDS011;39288;42.970;1.524;2022-08-19T00:47:20;4.53;;;3.10;;
53389;SDS011;39288;42.970;1.524;2022-08-19T00:48:21;5.28;;;3.00;;
53389;SDS011;39288;42.970;1.524;2022-08-19T00:49:29;4.40;;;2.70;;
53389;SDS011;39288;42.970;1.524;2022-08-19T00:50:32;6.65;;;3.28;;
53389;SDS011;39288;42.970;1.524;2022-08-19T00:51:33;5.53;;;3.43;;
53389;SDS011;39288;42.970;1.524;2022-08-19T00:52:35;8.57;;;4.03;;
53389;SDS011;39288;42.970;1.524;2022-08-19T00:53:38;3.38;;;2.55;;
53389;SDS011;39288;42.970;1.524;2022-08-19T00:54:39;5.80;;;3.13;;
53389;SDS011;39288;42.970;1.524;2022-08-19T00:55:42;5.22;;;3.35;;
53389;SDS011;39288;42.970;1.524;2022-08-19T00:56:45;4.20;;;3.50;;
53389;SDS011;39288;42.970;1.524;2022-08-19T00:57:48;4.90;;;3.45;;
53389;SDS011;39288;42.970;1.524;2022-08-19T00:58:52;5.03;;;3.00;;
53389;SDS011;39288;42.970;1.524;2022-08-19T00:59:56;9.02;;;4.00;;
53389;SDS011;39288;42.970;1.524;2022-08-19T01:00:57;6.10;;;3.33;;
53389;SDS011;39288;42.970;1.524;2022-08-19T01:01:58;7.70;;;3.70;;
53389;SDS011;39288;42.970;1.524;2022-08-19T01:02:59;5.83;;;3.30;;
53389;SDS011;39288;42.970;1.524;2022-08-19T01:03:59;5.90;;;3.67;;
53389;SDS011;39288;42.970;1.524;2022-08-19T01:05:01;6.43;;;3.47;;
53389;SDS011;39288;42.970;1.524;2022-08-19T01:06:04;4.97;;;3.47;;
53389;SDS011;39288;42.970;1.524;2022-08-19T01:07:05;5.30;;;3.13;;
53389;SDS011;39288;42.970;1.524;2022-08-19T01:08:08;7.18;;;3.45;;
53389;SDS011;39288;42.970;1.524;2022-08-19T01:09:09;5.43;;;3.65;;
53389;SDS011;39288;42.970;1.524;2022-08-19T01:10:11;7.07;;;3.80;;
53389;SDS011;39288;42.970;1.524;2022-08-19T01:11:13;6.95;;;3.50;;
53389;SDS011;39288;42.970;1.524;2022-08-19T01:12:14;6.77;;;3.77;;
53389;SDS011;39288;42.970;1.524;2022-08-19T01:13:15;6.33;;;3.67;;
53389;SDS011;39288;42.970;1.524;2022-08-19T01:14:17;6.95;;;3.75;;
53389;SDS011;39288;42.970;1.524;2022-08-19T01:15:19;8.57;;;3.77;;
53389;SDS011;39288;42.970;1.524;2022-08-19T01:16:24;6.63;;;3.75;;
53389;SDS011;39288;42.970;1.524;2022-08-19T01:17:25;8.32;;;4.18;;
53389;SDS011;39288;42.970;1.524;2022-08-19T01:18:27;8.02;;;4.03;;
53389;SDS011;39288;42.970;1.524;2022-08-19T01:19:33;9.52;;;4.00;;
53389;SDS011;39288;42.970;1.524;2022-08-19T01:20:37;4.85;;;3.72;;
53389;SDS011;39288;42.970;1.524;2022-08-19T01:21:40;5.82;;;3.50;;
53389;SDS011;39288;42.970;1.524;2022-08-19T01:22:44;6.43;;;3.80;;
53389;SDS011;39288;42.970;1.524;2022-08-19T01:23:47;6.35;;;4.13;;
53389;SDS011;39288;42.970;1.524;2022-08-19T01:24:47;7.17;;;4.07;;
53389;SDS011;39288;42.970;1.524;2022-08-19T01:25:50;4.87;;;3.73;;
53389;SDS011;39288;42.970;1.524;2022-08-19T01:26:52;7.80;;;3.97;;
53389;SDS011;39288;42.970;1.524;2022-08-19T01:27:53;8.50;;;4.35;;
53389;SDS011;39288;42.970;1.524;2022-08-19T01:28:56;5.50;;;3.95;;
53389;SDS011;39288;42.970;1.524;2022-08-19T01:29:57;6.57;;;3.80;;
53389;SDS011;39288;42.970;1.524;2022-08-19T01:30:57;11.63;;;4.20;;
53389;SDS011;39288;42.970;1.524;2022-08-19T01:31:58;6.87;;;4.00;;
53389;SDS011;39288;42.970;1.524;2022-08-19T01:33:00;6.15;;;3.58;;
53389;SDS011;39288;42.970;1.524;2022-08-19T01:34:01;7.15;;;4.03;;
53389;SDS011;39288;42.970;1.524;2022-08-19T01:35:03;7.10;;;4.15;;
53389;SDS011;39288;42.970;1.524;2022-08-19T01:36:08;5.97;;;3.95;;
53389;SDS011;39288;42.970;1.524;2022-08-19T01:37:14;11.40;;;3.97;;
53389;SDS011;39288;42.970;1.524;2022-08-19T01:38:25;6.05;;;4.70;;
53389;SDS011;39288;42.970;1.524;2022-08-19T01:39:26;6.80;;;3.58;;
53389;SDS011;39288;42.970;1.524;2022-08-19T01:40:31;4.43;;;3.53;;
53389;SDS011;39288;42.970;1.524;2022-08-19T01:41:33;6.63;;;3.42;;
53389;SDS011;39288;42.970;1.524;2022-08-19T01:42:35;10.55;;;3.88;;
53389;SDS011;39288;42.970;1.524;2022-08-19T01:43:35;6.05;;;3.78;;
53389;SDS011;39288;42.970;1.524;2022-08-19T01:44:37;6.63;;;3.40;;
53389;SDS011;39288;42.970;1.524;2022-08-19T01:45:38;5.78;;;3.80;;
53389;SDS011;39288;42.970;1.524;2022-08-19T01:46:40;6.60;;;3.60;;
53389;SDS011;39288;42.970;1.524;2022-08-19T01:48:46;6.00;;;3.38;;
53389;SDS011;39288;42.970;1.524;2022-08-19T01:49:46;6.90;;;3.60;;
53389;SDS011;39288;42.970;1.524;2022-08-19T01:50:47;6.50;;;3.60;;
53389;SDS011;39288;42.970;1.524;2022-08-19T01:51:48;6.10;;;3.80;;
53389;SDS011;39288;42.970;1.524;2022-08-19T01:52:49;7.35;;;4.15;;
53389;SDS011;39288;42.970;1.524;2022-08-19T01:53:50;7.10;;;4.03;;
53389;SDS011;39288;42.970;1.524;2022-08-19T01:54:51;7.22;;;3.63;;
53389;SDS011;39288;42.970;1.524;2022-08-19T01:55:51;5.67;;;4.47;;
53389;SDS011;39288;42.970;1.524;2022-08-19T01:56:53;9.90;;;4.60;;
53389;SDS011;39288;42.970;1.524;2022-08-19T01:57:58;7.30;;;3.85;;
53389;SDS011;39288;42.970;1.524;2022-08-19T01:59:03;5.38;;;3.60;;
53389;SDS011;39288;42.970;1.524;2022-08-19T02:00:07;8.30;;;4.45;;
53389;SDS011;39288;42.970;1.524;2022-08-19T02:01:10;8.23;;;3.65;;
53389;SDS011;39288;42.970;1.524;2022-08-19T02:02:11;8.30;;;3.93;;
53389;SDS011;39288;42.970;1.524;2022-08-19T02:03:12;6.17;;;4.30;;
53389;SDS011;39288;42.970;1.524;2022-08-19T02:04:12;6.73;;;4.00;;
53389;SDS011;39288;42.970;1.524;2022-08-19T02:05:14;7.18;;;4.15;;
53389;SDS011;39288;42.970;1.524;2022-08-19T02:06:18;8.02;;;4.10;;
53389;SDS011;39288;42.970;1.524;2022-08-19T02:07:21;6.55;;;4.15;;
53389;SDS011;39288;42.970;1.524;2022-08-19T02:08:22;9.88;;;4.25;;
53389;SDS011;39288;42.970;1.524;2022-08-19T02:09:22;6.33;;;3.77;;
53389;SDS011;39288;42.970;1.524;2022-08-19T02:10:23;6.80;;;4.20;;
53389;SDS011;39288;42.970;1.524;2022-08-19T02:11:25;7.80;;;4.50;;
53389;SDS011;39288;42.970;1.524;2022-08-19T02:12:28;7.95;;;4.60;;
53389;SDS011;39288;42.970;1.524;2022-08-19T02:13:28;15.97;;;4.93;;
53389;SDS011;39288;42.970;1.524;2022-08-19T02:14:29;5.70;;;4.07;;
53389;SDS011;39288;42.970;1.524;2022-08-19T02:15:29;6.30;;;3.97;;
53389;SDS011;39288;42.970;1.524;2022-08-19T02:16:30;6.97;;;4.27;;
53389;SDS011;39288;42.970;1.524;2022-08-19T02:17:30;8.57;;;4.37;;
53389;SDS011;39288;42.970;1.524;2022-08-19T02:18:31;8.47;;;4.10;;
53389;SDS011;39288;42.970;1.524;2022-08-19T02:19:35;10.73;;;5.38;;
53389;SDS011;39288;42.970;1.524;2022-08-19T02:20:36;11.97;;;4.50;;
53389;SDS011;39288;42.970;1.524;2022-08-19T02:21:37;5.70;;;4.22;;
53389;SDS011;39288;42.970;1.524;2022-08-19T02:22:37;9.67;;;4.87;;
53389;SDS011;39288;42.970;1.524;2022-08-19T02:23:41;6.28;;;4.55;;
53389;SDS011;39288;42.970;1.524;2022-08-19T02:24:42;7.53;;;4.75;;
53389;SDS011;39288;42.970;1.524;2022-08-19T02:25:44;7.23;;;5.20;;
53389;SDS011;39288;42.970;1.524;2022-08-19T02:26:45;5.53;;;3.90;;
53389;SDS011;39288;42.970;1.524;2022-08-19T02:27:46;7.40;;;4.33;;
53389;SDS011;39288;42.970;1.524;2022-08-19T02:28:46;6.90;;;4.83;;
53389;SDS011;39288;42.970;1.524;2022-08-19T02:29:48;5.97;;;4.13;;
53389;SDS011;39288;42.970;1.524;2022-08-19T02:30:50;6.63;;;4.38;;
53389;SDS011;39288;42.970;1.524;2022-08-19T02:31:51;7.03;;;4.43;;
53389;SDS011;39288;42.970;1.524;2022-08-19T02:32:51;8.13;;;4.30;;
53389;SDS011;39288;42.970;1.524;2022-08-19T02:33:52;9.25;;;4.60;;
53389;SDS011;39288;42.970;1.524;2022-08-19T02:34:53;6.50;;;4.20;;
53389;SDS011;39288;42.970;1.524;2022-08-19T02:35:53;7.70;;;4.43;;
53389;SDS011;39288;42.970;1.524;2022-08-19T02:36:54;8.17;;;4.83;;
53389;SDS011;39288;42.970;1.524;2022-08-19T02:37:55;7.50;;;4.00;;
53389;SDS011;39288;42.970;1.524;2022-08-19T02:39:14;5.55;;;4.18;;
53389;SDS011;39288;42.970;1.524;2022-08-19T02:40:14;9.40;;;4.17;;
53389;SDS011;39288;42.970;1.524;2022-08-19T02:41:18;7.43;;;4.50;;
53389;SDS011;39288;42.970;1.524;2022-08-19T02:42:23;8.85;;;4.40;;
53389;SDS011;39288;42.970;1.524;2022-08-19T02:43:25;7.33;;;3.93;;
53389;SDS011;39288;42.970;1.524;2022-08-19T02:44:26;8.52;;;4.13;;
53389;SDS011;39288;42.970;1.524;2022-08-19T02:45:32;7.97;;;4.60;;
53389;SDS011;39288;42.970;1.524;2022-08-19T02:46:33;6.32;;;4.07;;
53389;SDS011;39288;42.970;1.524;2022-08-19T02:47:34;6.25;;;4.43;;
53389;SDS011;39288;42.970;1.524;2022-08-19T02:48:35;6.87;;;4.13;;
53389;SDS011;39288;42.970;1.524;2022-08-19T02:49:35;6.97;;;4.23;;
53389;SDS011;39288;42.970;1.524;2022-08-19T02:50:39;6.17;;;4.27;;
53389;SDS011;39288;42.970;1.524;2022-08-19T02:51:40;7.38;;;3.90;;
53389;SDS011;39288;42.970;1.524;2022-08-19T02:52:42;5.68;;;4.22;;
53389;SDS011;39288;42.970;1.524;2022-08-19T02:53:43;6.00;;;4.10;;
53389;SDS011;39288;42.970;1.524;2022-08-19T02:54:44;8.25;;;3.83;;
53389;SDS011;39288;42.970;1.524;2022-08-19T02:55:45;8.20;;;4.53;;
53389;SDS011;39288;42.970;1.524;2022-08-19T02:57:47;9.45;;;4.65;;
53389;SDS011;39288;42.970;1.524;2022-08-19T02:58:48;5.70;;;4.00;;
53389;SDS011;39288;42.970;1.524;2022-08-19T02:59:48;6.17;;;3.70;;
53389;SDS011;39288;42.970;1.524;2022-08-19T03:00:51;6.77;;;4.17;;
53389;SDS011;39288;42.970;1.524;2022-08-19T03:01:53;8.43;;;3.35;;
53389;SDS011;39288;42.970;1.524;2022-08-19T03:02:53;9.17;;;4.30;;
53389;SDS011;39288;42.970;1.524;2022-08-19T03:03:55;6.30;;;3.90;;
53389;SDS011;39288;42.970;1.524;2022-08-19T03:04:56;11.13;;;4.50;;
53389;SDS011;39288;42.970;1.524;2022-08-19T03:06:07;8.57;;;4.50;;
53389;SDS011;39288;42.970;1.524;2022-08-19T03:07:12;7.35;;;4.20;;
53389;SDS011;39288;42.970;1.524;2022-08-19T03:08:13;8.88;;;4.22;;
53389;SDS011;39288;42.970;1.524;2022-08-19T03:09:14;8.87;;;4.33;;
53389;SDS011;39288;42.970;1.524;2022-08-19T03:10:15;8.98;;;3.95;;
53389;SDS011;39288;42.970;1.524;2022-08-19T03:11:20;7.03;;;3.87;;
53389;SDS011;39288;42.970;1.524;2022-08-19T03:12:23;7.60;;;4.55;;
53389;SDS011;39288;42.970;1.524;2022-08-19T03:13:23;8.93;;;4.40;;
53389;SDS011;39288;42.970;1.524;2022-08-19T03:14:24;6.87;;;4.13;;
53389;SDS011;39288;42.970;1.524;2022-08-19T03:15:24;6.43;;;3.83;;
53389;SDS011;39288;42.970;1.524;2022-08-19T03:16:28;7.90;;;3.75;;
53389;SDS011;39288;42.970;1.524;2022-08-19T03:17:30;7.35;;;3.67;;
53389;SDS011;39288;42.970;1.524;2022-08-19T03:18:31;7.63;;;4.23;;
53389;SDS011;39288;42.970;1.524;2022-08-19T03:19:31;7.83;;;3.93;;
53389;SDS011;39288;42.970;1.524;2022-08-19T03:20:32;8.93;;;4.10;;
53389;SDS011;39288;42.970;1.524;2022-08-19T03:21:33;5.37;;;3.70;;
53389;SDS011;39288;42.970;1.524;2022-08-19T03:22:34;7.10;;;3.50;;
53389;SDS011;39288;42.970;1.524;2022-08-19T03:23:34;9.17;;;4.03;;
53389;SDS011;39288;42.970;1.524;2022-08-19T03:24:35;8.23;;;3.83;;
53389;SDS011;39288;42.970;1.524;2022-08-19T03:25:37;7.63;;;3.93;;
53389;SDS011;39288;42.970;1.524;2022-08-19T03:26:41;8.23;;;4.18;;
53389;SDS011;39288;42.970;1.524;2022-08-19T03:27:44;4.38;;;2.95;;
53389;SDS011;39288;42.970;1.524;2022-08-19T03:28:45;6.63;;;3.88;;
53389;SDS011;39288;42.970;1.524;2022-08-19T03:29:49;5.53;;;3.53;;
53389;SDS011;39288;42.970;1.524;2022-08-19T03:30:54;4.82;;;3.25;;
53389;SDS011;39288;42.970;1.524;2022-08-19T03:32:06;5.38;;;3.10;;
53389;SDS011;39288;42.970;1.524;2022-08-19T03:33:07;6.23;;;3.20;;
53389;SDS011;39288;42.970;1.524;2022-08-19T03:34:09;6.82;;;3.60;;
53389;SDS011;39288;42.970;1.524;2022-08-19T03:35:11;7.85;;;3.97;;
53389;SDS011;39288;42.970;1.524;2022-08-19T03:36:13;6.53;;;4.03;;
53389;SDS011;39288;42.970;1.524;2022-08-19T03:37:15;5.80;;;3.70;;
53389;SDS011;39288;42.970;1.524;2022-08-19T03:38:16;7.70;;;4.00;;
53389;SDS011;39288;42.970;1.524;2022-08-19T03:39:16;5.83;;;4.07;;
53389;SDS011;39288;42.970;1.524;2022-08-19T03:40:17;6.73;;;4.17;;
53389;SDS011;39288;42.970;1.524;2022-08-19T03:41:20;6.18;;;3.90;;
53389;SDS011;39288;42.970;1.524;2022-08-19T03:42:22;4.30;;;3.60;;
53389;SDS011;39288;42.970;1.524;2022-08-19T03:43:23;4.53;;;3.47;;
53389;SDS011;39288;42.970;1.524;2022-08-19T03:44:23;6.30;;;3.93;;
53389;SDS011;39288;42.970;1.524;2022-08-19T03:45:24;8.50;;;3.90;;
53389;SDS011;39288;42.970;1.524;2022-08-19T03:46:26;7.73;;;3.93;;
53389;SDS011;39288;42.970;1.524;2022-08-19T03:47:28;6.20;;;3.45;;
53389;SDS011;39288;42.970;1.524;2022-08-19T03:49:31;4.82;;;2.10;;
53389;SDS011;39288;42.970;1.524;2022-08-19T03:50:38;3.83;;;2.30;;
53389;SDS011;39288;42.970;1.524;2022-08-19T03:51:39;2.50;;;2.30;;
53389;SDS011;39288;42.970;1.524;2022-08-19T03:52:40;2.90;;;2.40;;
53389;SDS011;39288;42.970;1.524;2022-08-19T03:53:41;6.20;;;2.60;;
53389;SDS011;39288;42.970;1.524;2022-08-19T03:54:41;2.37;;;1.87;;
53389;SDS011;39288;42.970;1.524;2022-08-19T03:55:42;3.00;;;1.80;;
53389;SDS011;39288;42.970;1.524;2022-08-19T03:56:43;2.07;;;1.57;;
53389;SDS011;39288;42.970;1.524;2022-08-19T03:57:45;1.75;;;1.58;;
53389;SDS011;39288;42.970;1.524;2022-08-19T03:58:47;2.10;;;1.90;;
53389;SDS011;39288;42.970;1.524;2022-08-19T03:59:48;2.60;;;2.10;;
53389;SDS011;39288;42.970;1.524;2022-08-19T04:00:48;2.53;;;2.27;;
53389;SDS011;39288;42.970;1.524;2022-08-19T04:01:49;1.80;;;1.50;;
53389;SDS011;39288;42.970;1.524;2022-08-19T04:02:49;2.37;;;1.70;;
53389;SDS011;39288;42.970;1.524;2022-08-19T04:03:50;2.03;;;1.43;;
53389;SDS011;39288;42.970;1.524;2022-08-19T04:04:52;3.17;;;1.37;;
53389;SDS011;39288;42.970;1.524;2022-08-19T04:05:54;2.33;;;1.80;;
53389;SDS011;39288;42.970;1.524;2022-08-19T04:06:55;1.63;;;1.53;;
53389;SDS011;39288;42.970;1.524;2022-08-19T04:07:56;2.30;;;1.55;;
53389;SDS011;39288;42.970;1.524;2022-08-19T04:08:59;2.90;;;2.13;;
53389;SDS011;39288;42.970;1.524;2022-08-19T04:10:01;3.95;;;2.40;;
53389;SDS011;39288;42.970;1.524;2022-08-19T04:11:06;4.35;;;2.58;;
53389;SDS011;39288;42.970;1.524;2022-08-19T04:12:07;5.43;;;3.17;;
53389;SDS011;39288;42.970;1.524;2022-08-19T04:13:08;3.23;;;2.50;;
53389;SDS011;39288;42.970;1.524;2022-08-19T04:14:09;5.70;;;3.13;;
53389;SDS011;39288;42.970;1.524;2022-08-19T04:15:14;5.38;;;2.80;;
53389;SDS011;39288;42.970;1.524;2022-08-19T04:16:15;6.80;;;3.13;;
53389;SDS011;39288;42.970;1.524;2022-08-19T04:17:15;5.73;;;4.07;;
53389;SDS011;39288;42.970;1.524;2022-08-19T04:18:16;3.63;;;3.20;;
53389;SDS011;39288;42.970;1.524;2022-08-19T04:19:17;8.70;;;4.20;;
53389;SDS011;39288;42.970;1.524;2022-08-19T04:20:19;8.90;;;3.60;;
53389;SDS011;39288;42.970;1.524;2022-08-19T04:21:21;6.47;;;3.60;;
53389;SDS011;39288;42.970;1.524;2022-08-19T04:22:22;5.40;;;3.63;;
53389;SDS011;39288;42.970;1.524;2022-08-19T04:23:23;7.73;;;3.60;;
53389;SDS011;39288;42.970;1.524;2022-08-19T04:24:23;9.07;;;4.03;;
53389;SDS011;39288;42.970;1.524;2022-08-19T04:25:24;10.13;;;4.47;;
53389;SDS011;39288;42.970;1.524;2022-08-19T04:26:30;6.07;;;4.00;;
53389;SDS011;39288;42.970;1.524;2022-08-19T04:27:32;8.18;;;4.57;;
53389;SDS011;39288;42.970;1.524;2022-08-19T04:28:34;8.35;;;4.35;;
53389;SDS011;39288;42.970;1.524;2022-08-19T04:29:35;9.38;;;4.65;;
53389;SDS011;39288;42.970;1.524;2022-08-19T04:30:40;7.10;;;4.38;;
53389;SDS011;39288;42.970;1.524;2022-08-19T04:31:50;8.02;;;4.82;;
53389;SDS011;39288;42.970;1.524;2022-08-19T04:32:51;7.97;;;5.07;;
53389;SDS011;39288;42.970;1.524;2022-08-19T04:33:52;7.50;;;4.73;;
53389;SDS011;39288;42.970;1.524;2022-08-19T04:34:54;6.78;;;4.47;;
53389;SDS011;39288;42.970;1.524;2022-08-19T04:35:56;8.95;;;4.35;;
53389;SDS011;39288;42.970;1.524;2022-08-19T04:36:58;8.07;;;4.30;;
53389;SDS011;39288;42.970;1.524;2022-08-19T04:37:59;12.43;;;5.20;;
53389;SDS011;39288;42.970;1.524;2022-08-19T04:39:00;8.03;;;4.67;;
53389;SDS011;39288;42.970;1.524;2022-08-19T04:40:04;8.32;;;4.93;;
53389;SDS011;39288;42.970;1.524;2022-08-19T04:41:24;10.73;;;5.40;;
53389;SDS011;39288;42.970;1.524;2022-08-19T04:42:44;7.88;;;4.70;;
53389;SDS011;39288;42.970;1.524;2022-08-19T04:43:44;8.27;;;4.90;;
53389;SDS011;39288;42.970;1.524;2022-08-19T04:44:48;9.82;;;4.53;;
53389;SDS011;39288;42.970;1.524;2022-08-19T04:45:50;9.43;;;4.38;;
53389;SDS011;39288;42.970;1.524;2022-08-19T04:46:51;10.37;;;5.20;;
53389;SDS011;39288;42.970;1.524;2022-08-19T04:47:54;7.10;;;4.70;;
53389;SDS011;39288;42.970;1.524;2022-08-19T04:48:58;6.30;;;4.38;;
53389;SDS011;39288;42.970;1.524;2022-08-19T04:49:59;6.93;;;4.05;;
53389;SDS011;39288;42.970;1.524;2022-08-19T04:50:59;12.37;;;4.63;;
53389;SDS011;39288;42.970;1.524;2022-08-19T04:52:00;9.43;;;4.77;;
53389;SDS011;39288;42.970;1.524;2022-08-19T04:53:00;9.93;;;4.43;;
53389;SDS011;39288;42.970;1.524;2022-08-19T04:54:02;10.30;;;5.30;;
53389;SDS011;39288;42.970;1.524;2022-08-19T04:55:03;10.93;;;4.60;;
53389;SDS011;39288;42.970;1.524;2022-08-19T04:56:10;7.00;;;4.78;;
53389;SDS011;39288;42.970;1.524;2022-08-19T04:57:12;10.48;;;5.32;;
53389;SDS011;39288;42.970;1.524;2022-08-19T04:58:12;7.00;;;4.20;;
53389;SDS011;39288;42.970;1.524;2022-08-19T04:59:13;8.17;;;4.60;;
53389;SDS011;39288;42.970;1.524;2022-08-19T05:00:14;7.60;;;5.47;;
53389;SDS011;39288;42.970;1.524;2022-08-19T05:01:18;8.20;;;4.43;;
53389;SDS011;39288;42.970;1.524;2022-08-19T05:02:22;8.35;;;4.57;;
53389;SDS011;39288;42.970;1.524;2022-08-19T05:03:24;9.68;;;4.45;;
53389;SDS011;39288;42.970;1.524;2022-08-19T05:04:25;9.67;;;4.63;;
53389;SDS011;39288;42.970;1.524;2022-08-19T05:05:25;10.07;;;4.10;;
53389;SDS011;39288;42.970;1.524;2022-08-19T05:06:28;7.17;;;4.10;;
53389;SDS011;39288;42.970;1.524;2022-08-19T05:07:32;8.85;;;3.80;;
53389;SDS011;39288;42.970;1.524;2022-08-19T05:08:33;7.10;;;3.77;;
53389;SDS011;39288;42.970;1.524;2022-08-19T05:09:35;8.85;;;3.70;;
53389;SDS011;39288;42.970;1.524;2022-08-19T05:10:37;9.33;;;4.23;;
53389;SDS011;39288;42.970;1.524;2022-08-19T05:11:38;6.60;;;3.90;;
53389;SDS011;39288;42.970;1.524;2022-08-19T05:12:39;6.30;;;3.50;;
53389;SDS011;39288;42.970;1.524;2022-08-19T05:13:40;18.80;;;4.27;;
53389;SDS011;39288;42.970;1.524;2022-08-19T05:14:41;8.77;;;3.85;;
53389;SDS011;39288;42.970;1.524;2022-08-19T05:15:41;5.90;;;3.50;;
53389;SDS011;39288;42.970;1.524;2022-08-19T05:16:42;7.57;;;3.60;;
53389;SDS011;39288;42.970;1.524;2022-08-19T05:17:43;8.47;;;4.10;;
53389;SDS011;39288;42.970;1.524;2022-08-19T05:19:03;8.60;;;3.90;;
53389;SDS011;39288;42.970;1.524;2022-08-19T05:20:22;7.10;;;3.83;;
53389;SDS011;39288;42.970;1.524;2022-08-19T05:21:42;7.72;;;3.72;;
53389;SDS011;39288;42.970;1.524;2022-08-19T05:23:01;6.70;;;3.67;;
53389;SDS011;39288;42.970;1.524;2022-08-19T05:24:04;8.38;;;4.18;;
53389;SDS011;39288;42.970;1.524;2022-08-19T05:25:10;8.15;;;3.80;;
53389;SDS011;39288;42.970;1.524;2022-08-19T05:26:12;5.82;;;3.47;;
53389;SDS011;39288;42.970;1.524;2022-08-19T05:27:12;7.27;;;3.50;;
53389;SDS011;39288;42.970;1.524;2022-08-19T05:28:13;8.63;;;3.90;;
53389;SDS011;39288;42.970;1.524;2022-08-19T05:29:17;7.27;;;3.97;;
53389;SDS011;39288;42.970;1.524;2022-08-19T05:30:19;6.30;;;3.60;;
53389;SDS011;39288;42.970;1.524;2022-08-19T05:31:19;6.97;;;4.00;;
53389;SDS011;39288;42.970;1.524;2022-08-19T05:32:20;8.10;;;4.20;;
53389;SDS011;39288;42.970;1.524;2022-08-19T05:33:23;7.00;;;4.28;;
53389;SDS011;39288;42.970;1.524;2022-08-19T05:34:25;5.93;;;4.25;;
53389;SDS011;39288;42.970;1.524;2022-08-19T05:36:27;8.85;;;3.97;;
53389;SDS011;39288;42.970;1.524;2022-08-19T05:37:30;12.00;;;4.57;;
53389;SDS011;39288;42.970;1.524;2022-08-19T05:38:31;6.73;;;3.90;;
53389;SDS011;39288;42.970;1.524;2022-08-19T05:39:32;6.13;;;4.00;;
53389;SDS011;39288;42.970;1.524;2022-08-19T05:40:34;8.68;;;3.95;;
53389;SDS011;39288;42.970;1.524;2022-08-19T05:41:44;6.53;;;3.53;;
53389;SDS011;39288;42.970;1.524;2022-08-19T05:42:46;6.22;;;3.53;;
53389;SDS011;39288;42.970;1.524;2022-08-19T05:43:46;9.83;;;4.20;;
53389;SDS011;39288;42.970;1.524;2022-08-19T05:44:47;5.50;;;3.97;;
53389;SDS011;39288;42.970;1.524;2022-08-19T05:46:50;5.40;;;3.47;;
53389;SDS011;39288;42.970;1.524;2022-08-19T05:47:54;8.43;;;3.70;;
53389;SDS011;39288;42.970;1.524;2022-08-19T05:48:55;6.07;;;3.40;;
53389;SDS011;39288;42.970;1.524;2022-08-19T05:49:58;8.07;;;3.80;;
53389;SDS011;39288;42.970;1.524;2022-08-19T05:51:05;9.73;;;4.10;;
53389;SDS011;39288;42.970;1.524;2022-08-19T05:52:10;6.68;;;4.05;;
53389;SDS011;39288;42.970;1.524;2022-08-19T05:53:12;8.75;;;4.40;;
53389;SDS011;39288;42.970;1.524;2022-08-19T05:54:13;5.90;;;4.10;;
53389;SDS011;39288;42.970;1.524;2022-08-19T05:55:13;6.23;;;3.87;;
53389;SDS011;39288;42.970;1.524;2022-08-19T05:56:14;7.90;;;3.73;;
53389;SDS011;39288;42.970;1.524;2022-08-19T05:57:16;6.43;;;3.72;;
53389;SDS011;39288;42.970;1.524;2022-08-19T05:58:16;8.00;;;3.83;;
53389;SDS011;39288;42.970;1.524;2022-08-19T05:59:17;6.33;;;3.43;;
53389;SDS011;39288;42.970;1.524;2022-08-19T06:00:21;8.85;;;3.85;;
53389;SDS011;39288;42.970;1.524;2022-08-19T06:01:22;6.95;;;3.83;;
53389;SDS011;39288;42.970;1.524;2022-08-19T06:02:23;7.63;;;3.90;;
53389;SDS011;39288;42.970;1.524;2022-08-19T06:03:23;5.60;;;3.13;;
53389;SDS011;39288;42.970;1.524;2022-08-19T06:04:24;7.67;;;4.03;;
53389;SDS011;39288;42.970;1.524;2022-08-19T06:05:25;6.80;;;3.85;;
53389;SDS011;39288;42.970;1.524;2022-08-19T06:06:25;8.10;;;3.70;;
53389;SDS011;39288;42.970;1.524;2022-08-19T06:07:26;5.60;;;3.77;;
53389;SDS011;39288;42.970;1.524;2022-08-19T06:08:27;9.13;;;4.07;;
53389;SDS011;39288;42.970;1.524;2022-08-19T06:09:28;6.33;;;3.73;;
53389;SDS011;39288;42.970;1.524;2022-08-19T06:10:29;5.10;;;3.70;;
53389;SDS011;39288;42.970;1.524;2022-08-19T06:11:46;7.03;;;3.93;;
53389;SDS011;39288;42.970;1.524;2022-08-19T06:12:54;6.57;;;3.65;;
53389;SDS011;39288;42.970;1.524;2022-08-19T06:13:56;7.35;;;3.95;;
53389;SDS011;39288;42.970;1.524;2022-08-19T06:14:57;10.93;;;3.85;;
53389;SDS011;39288;42.970;1.524;2022-08-19T06:15:58;9.33;;;4.07;;
53389;SDS011;39288;42.970;1.524;2022-08-19T06:16:58;6.67;;;4.03;;
53389;SDS011;39288;42.970;1.524;2022-08-19T06:18:01;6.53;;;4.00;;
53389;SDS011;39288;42.970;1.524;2022-08-19T06:19:02;6.03;;;3.50;;
53389;SDS011;39288;42.970;1.524;2022-08-19T06:20:07;12.18;;;3.72;;